createdAt,value
2018-03-26T00:00:16.786Z,22.87
2018-03-26T00:02:47.828Z,24.00
2018-03-26T00:05:17.792Z,25.30
2018-03-26T00:07:48.737Z,22.97
2018-03-26T00:10:18.709Z,24.40
2018-03-26T00:12:49.184Z,25.77
2018-03-26T00:15:19.299Z,25.80
2018-03-26T00:17:49.046Z,25.43
2018-03-26T00:20:22.118Z,25.57
2018-03-26T00:22:51.710Z,26.70
2018-03-26T00:25:25.586Z,26.80
2018-03-26T00:27:56.127Z,27.00
2018-03-26T00:30:26.176Z,28.20
2018-03-26T00:32:56.033Z,30.13
2018-03-26T00:35:35.337Z,31.13
2018-03-26T00:38:07.705Z,30.30
2018-03-26T00:40:38.021Z,29.87
2018-03-26T00:43:07.670Z,31.10
2018-03-26T00:45:38.245Z,30.33
2018-03-26T00:48:08.153Z,30.50
2018-03-26T00:50:38.127Z,30.50
2018-03-26T00:53:08.711Z,30.73
2018-03-26T00:55:38.670Z,30.83
2018-03-26T00:58:09.576Z,30.20
2018-03-26T01:00:40.692Z,29.93
2018-03-26T01:03:11.707Z,31.07
2018-03-26T01:05:43.084Z,30.97
2018-03-26T01:08:13.742Z,31.90
2018-03-26T01:10:45.181Z,30.53
2018-03-26T01:13:15.358Z,32.07
2018-03-26T01:15:49.142Z,29.73
2018-03-26T01:18:19.767Z,30.97
2018-03-26T01:23:35.081Z,31.77
2018-03-26T01:26:05.546Z,31.70
2018-03-26T01:28:35.510Z,32.90
2018-03-26T01:31:06.567Z,33.43
2018-03-26T01:33:36.384Z,32.67
2018-03-26T01:36:06.529Z,32.37
2018-03-26T01:38:36.921Z,32.07
2018-03-26T01:41:07.671Z,31.53
2018-03-26T01:43:37.685Z,31.60
2018-03-26T01:46:08.197Z,33.60
2018-03-26T01:48:38.435Z,31.90
2018-03-26T01:51:08.664Z,32.37
2018-03-26T01:53:38.972Z,31.60
2018-03-26T01:56:12.462Z,32.90
2018-03-26T01:58:42.703Z,32.23
2018-03-26T02:01:14.604Z,31.70
2018-03-26T02:03:45.145Z,32.50
2018-03-26T02:06:16.866Z,30.67
2018-03-26T02:08:47.358Z,30.30
2018-03-26T02:11:19.429Z,30.57
2018-03-26T02:13:49.342Z,27.93
2018-03-26T02:16:21.072Z,28.67
2018-03-26T02:18:52.645Z,27.50
2018-03-26T02:21:24.168Z,28.87
2018-03-26T02:23:54.683Z,24.60
2018-03-26T02:26:25.438Z,25.20
2018-03-26T02:28:56.054Z,26.90
2018-03-26T02:31:27.793Z,26.50
2018-03-26T02:33:57.876Z,27.73
2018-03-26T02:36:30.022Z,26.10
2018-03-26T02:39:00.391Z,26.67
2018-03-26T02:41:32.273Z,27.47
2018-03-26T02:44:02.503Z,26.70
2018-03-26T02:46:34.291Z,27.13
2018-03-26T02:49:04.744Z,27.43
2018-03-26T02:51:37.048Z,25.83
2018-03-26T02:54:08.158Z,25.57
2018-03-26T02:56:40.037Z,25.10
2018-03-26T02:59:12.073Z,26.07
2018-03-26T03:01:42.339Z,25.63
2018-03-26T03:04:12.420Z,25.20
2018-03-26T03:06:44.782Z,25.97
2018-03-26T03:09:15.015Z,25.20
2018-03-26T03:11:54.767Z,25.07
2018-03-26T03:14:24.755Z,23.90
2018-03-26T03:16:54.802Z,25.93
2018-03-26T03:19:26.124Z,25.30
2018-03-26T03:21:55.756Z,26.17
2018-03-26T03:24:26.061Z,25.50
2018-03-26T03:26:56.294Z,26.13
2018-03-26T03:29:27.311Z,27.03
2018-03-26T03:31:57.332Z,28.17
2018-03-26T03:34:27.392Z,27.33
2018-03-26T03:37:04.989Z,25.93
2018-03-26T03:39:34.772Z,25.07
2018-03-26T03:42:04.990Z,28.00
2018-03-26T03:44:35.209Z,27.67
2018-03-26T03:47:08.137Z,27.37
2018-03-26T03:49:39.054Z,27.20
2018-03-26T03:52:09.490Z,28.03
2018-03-26T03:54:39.796Z,28.80
2018-03-26T03:57:13.600Z,28.83
2018-03-26T03:59:43.435Z,27.33
2018-03-26T04:02:15.491Z,29.67
2018-03-26T04:04:45.539Z,28.83
2018-03-26T04:07:17.361Z,28.40
2018-03-26T04:09:47.919Z,30.40
2018-03-26T04:12:19.780Z,29.20
2018-03-26T04:14:50.785Z,30.23
2018-03-26T04:17:21.651Z,30.47
2018-03-26T04:19:52.552Z,31.33
2018-03-26T04:22:25.984Z,31.40
2018-03-26T04:24:57.102Z,32.10
2018-03-26T04:27:27.778Z,29.90
2018-03-26T04:29:57.732Z,31.30
2018-03-26T04:32:29.802Z,31.90
2018-03-26T04:34:59.948Z,32.33
2018-03-26T04:37:31.403Z,31.13
2018-03-26T04:40:01.439Z,32.67
2018-03-26T04:42:38.936Z,32.23
2018-03-26T04:45:09.473Z,31.30
2018-03-26T04:47:39.958Z,31.83
2018-03-26T04:50:10.700Z,31.90
2018-03-26T04:52:41.657Z,34.37
2018-03-26T04:55:11.757Z,33.57
2018-03-26T04:57:42.505Z,34.57
2018-03-26T05:00:12.802Z,34.50
2018-03-26T05:02:45.134Z,34.47
2018-03-26T05:05:15.264Z,35.13
2018-03-26T05:07:48.386Z,34.57
2018-03-26T05:10:19.138Z,34.13
2018-03-26T05:12:49.816Z,32.87
2018-03-26T05:15:20.353Z,35.07
2018-03-26T05:17:53.719Z,34.83
2018-03-26T05:20:24.013Z,33.30
2018-03-26T05:22:55.257Z,38.57
2018-03-26T05:25:25.193Z,38.87
2018-03-26T05:27:57.649Z,36.53
2018-03-26T05:30:27.494Z,36.17
2018-03-26T05:33:00.852Z,34.77
2018-03-26T05:35:31.235Z,35.27
2018-03-26T05:38:02.545Z,35.73
2018-03-26T05:40:32.389Z,35.80
2018-03-26T05:43:05.767Z,35.97
2018-03-26T05:45:35.746Z,35.47
2018-03-26T05:48:09.206Z,34.40
2018-03-26T05:50:38.995Z,34.83
2018-03-26T05:53:10.723Z,35.37
2018-03-26T05:55:41.959Z,38.80
2018-03-26T05:58:13.163Z,38.20
2018-03-26T06:00:42.890Z,34.33
2018-03-26T06:03:14.809Z,34.27
2018-03-26T06:05:44.572Z,33.60
2018-03-26T06:08:18.041Z,34.10
2018-03-26T06:10:48.467Z,34.73
2018-03-26T06:13:19.646Z,33.60
2018-03-26T06:15:49.754Z,34.13
2018-03-26T06:18:23.039Z,33.30
2018-03-26T06:20:53.128Z,34.07
2018-03-26T06:23:30.664Z,33.87
2018-03-26T06:26:00.460Z,32.27
2018-03-26T06:28:30.445Z,34.40
2018-03-26T06:31:00.326Z,33.80
2018-03-26T06:33:31.896Z,32.93
2018-03-26T06:36:02.035Z,34.20
2018-03-26T06:38:35.109Z,32.37
2018-03-26T06:41:04.833Z,31.83
2018-03-26T06:43:36.128Z,34.20
2018-03-26T06:46:05.864Z,34.40
2018-03-26T06:48:43.720Z,33.53
2018-03-26T06:51:13.517Z,33.77
2018-03-26T06:53:43.328Z,36.30
2018-03-26T06:56:13.836Z,33.20
2018-03-26T06:58:44.426Z,32.43
2018-03-26T07:01:14.119Z,32.10
2018-03-26T07:03:47.023Z,32.70
2018-03-26T07:06:16.916Z,32.47
2018-03-26T07:08:53.736Z,32.87
2018-03-26T07:11:23.244Z,31.57
2018-03-26T07:13:52.913Z,31.60
2018-03-26T07:16:22.341Z,32.30
2018-03-26T07:18:59.528Z,31.83
2018-03-26T07:21:29.581Z,32.17
2018-03-26T07:23:59.706Z,32.90
2018-03-26T07:26:29.897Z,32.40
2018-03-26T07:29:01.042Z,33.53
2018-03-26T07:31:30.448Z,34.93
2018-03-26T07:34:07.398Z,33.53
2018-03-26T07:36:36.804Z,32.40
2018-03-26T07:39:07.190Z,32.30
2018-03-26T07:41:36.537Z,34.77
2018-03-26T07:44:10.310Z,32.60
2018-03-26T07:46:39.677Z,31.47
2018-03-26T07:49:13.227Z,33.57
2018-03-26T07:51:43.224Z,31.10
2018-03-26T07:54:14.125Z,31.37
2018-03-26T07:56:44.287Z,31.27
2018-03-26T07:59:16.711Z,32.23
2018-03-26T08:01:46.960Z,33.63
2018-03-26T08:04:19.511Z,32.23
2018-03-26T08:06:51.499Z,33.00
2018-03-26T08:09:21.766Z,31.27
2018-03-26T08:11:51.086Z,31.60
2018-03-26T08:14:22.836Z,31.30
2018-03-26T08:16:52.287Z,30.67
2018-03-26T08:19:28.818Z,31.93
2018-03-26T08:21:59.211Z,30.67
2018-03-26T08:24:28.911Z,28.87
2018-03-26T08:26:58.381Z,30.17
2018-03-26T08:29:35.573Z,30.20
2018-03-26T08:32:04.914Z,26.87
2018-03-26T08:34:35.620Z,26.13
2018-03-26T08:37:05.052Z,24.70
2018-03-26T08:39:34.559Z,27.63
2018-03-26T08:42:04.186Z,24.63
2018-03-26T08:44:40.453Z,24.90
2018-03-26T08:47:10.664Z,23.73
2018-03-26T08:49:40.955Z,24.17
2018-03-26T08:52:10.329Z,23.93
2018-03-26T08:54:43.147Z,23.43
2018-03-26T08:57:12.667Z,21.70
2018-03-26T08:59:45.516Z,20.73
2018-03-26T09:02:15.144Z,19.80
2018-03-26T09:04:47.794Z,17.07
2018-03-26T09:07:17.041Z,16.27
2018-03-26T09:09:50.476Z,16.20
2018-03-26T09:12:20.052Z,18.13
2018-03-26T09:14:52.513Z,14.67
2018-03-26T09:17:21.968Z,13.93
2018-03-26T09:19:58.803Z,12.20
2018-03-26T09:22:29.003Z,12.40
2018-03-26T09:24:59.148Z,10.03
2018-03-26T09:27:29.203Z,12.00
2018-03-26T09:30:02.097Z,11.53
2018-03-26T09:32:31.492Z,10.60
2018-03-26T09:35:04.500Z,11.47
2018-03-26T09:37:34.087Z,12.10
2018-03-26T09:40:07.820Z,10.87
2018-03-26T09:42:37.038Z,10.30
2018-03-26T09:45:12.332Z,9.13
2018-03-26T09:47:42.326Z,10.53
2018-03-26T09:50:15.123Z,9.03
2018-03-26T09:52:44.844Z,8.67
2018-03-26T09:55:16.272Z,6.27
2018-03-26T09:57:45.529Z,7.23
2018-03-26T10:00:18.456Z,7.90
2018-03-26T10:02:47.667Z,6.47
2018-03-26T10:05:25.153Z,6.93
2018-03-26T10:07:54.545Z,5.47
2018-03-26T10:10:24.632Z,5.27
2018-03-26T10:12:53.936Z,3.80
2018-03-26T10:15:25.555Z,3.53
2018-03-26T10:17:55.249Z,3.90
2018-03-26T10:20:28.353Z,4.33
2018-03-26T10:22:58.011Z,3.70
2018-03-26T10:25:28.888Z,3.40
2018-03-26T10:27:58.093Z,3.60
2018-03-26T10:30:35.410Z,4.33
2018-03-26T10:33:04.744Z,3.83
2018-03-26T10:35:34.190Z,4.57
2018-03-26T10:38:03.738Z,4.53
2018-03-26T10:40:36.491Z,5.43
2018-03-26T10:43:07.999Z,5.03
2018-03-26T10:45:38.023Z,5.47
2018-03-26T10:48:08.548Z,4.93
2018-03-26T10:50:42.181Z,5.13
2018-03-26T10:53:28.453Z,5.83
2018-03-26T10:56:14.168Z,5.63
2018-03-26T10:58:46.393Z,6.10
2018-03-26T11:01:16.810Z,6.43
2018-03-26T11:03:48.107Z,5.87
2018-03-26T11:06:18.314Z,5.20
2018-03-26T11:08:50.954Z,5.20
2018-03-26T11:11:20.412Z,6.00
2018-03-26T11:13:54.118Z,4.67
2018-03-26T11:16:24.645Z,4.50
2018-03-26T11:18:56.349Z,4.60
2018-03-26T11:21:25.787Z,4.70
2018-03-26T11:23:59.123Z,4.70
2018-03-26T11:26:28.572Z,5.23
2018-03-26T11:29:05.531Z,6.17
2018-03-26T11:31:35.246Z,6.43
2018-03-26T11:34:09.181Z,6.83
2018-03-26T11:36:39.417Z,7.27
2018-03-26T11:39:18.221Z,7.90
2018-03-26T11:41:48.036Z,6.40
2018-03-26T11:44:17.881Z,6.63
2018-03-26T11:46:47.715Z,6.20
2018-03-26T11:49:19.846Z,6.70
2018-03-26T11:51:50.138Z,5.37
2018-03-26T11:54:20.969Z,5.03
2018-03-26T11:56:52.725Z,6.10
2018-03-26T11:59:22.956Z,8.20
2018-03-26T12:01:52.360Z,6.67
2018-03-26T12:04:30.909Z,6.60
2018-03-26T12:07:00.503Z,7.80
2018-03-26T12:09:29.977Z,8.13
2018-03-26T12:11:59.746Z,7.47
2018-03-26T12:14:32.302Z,7.37
2018-03-26T12:17:01.875Z,8.83
2018-03-26T12:19:36.053Z,6.77
2018-03-26T12:22:05.643Z,7.07
2018-03-26T12:25:10.193Z,6.70
2018-03-26T12:27:48.324Z,7.23
2018-03-26T12:30:19.328Z,6.87
2018-03-26T12:32:48.754Z,8.07
2018-03-26T12:36:00.285Z,5.73
2018-03-26T12:38:30.564Z,5.00
2018-03-26T12:41:00.140Z,5.30
2018-03-26T12:43:29.856Z,5.37
2018-03-26T12:46:46.507Z,6.63
2018-03-26T12:49:18.133Z,5.10
2018-03-26T12:52:05.462Z,6.73
2018-03-26T12:54:35.082Z,7.27
2018-03-26T12:57:13.250Z,8.17
2018-03-26T12:59:43.049Z,8.13
2018-03-26T13:02:28.436Z,8.13
2018-03-26T13:04:59.300Z,7.10
2018-03-26T13:07:28.667Z,7.70
2018-03-26T13:10:02.191Z,8.40
2018-03-26T13:12:31.945Z,10.43
2018-03-26T13:15:05.265Z,8.47
2018-03-26T13:17:34.685Z,8.20
2018-03-26T13:20:08.066Z,8.03
2018-03-26T13:22:37.466Z,8.97
2018-03-26T13:25:14.332Z,8.67
2018-03-26T13:27:43.796Z,8.53
2018-03-26T13:30:14.389Z,8.07
2018-03-26T13:32:44.536Z,7.83
2018-03-26T13:35:16.438Z,7.80
2018-03-26T13:37:46.503Z,8.90
2018-03-26T13:40:18.982Z,8.50
2018-03-26T13:42:48.421Z,6.77
2018-03-26T13:45:21.734Z,6.83
2018-03-26T13:47:51.109Z,6.90
2018-03-26T13:50:25.039Z,7.00
2018-03-26T13:52:54.657Z,6.07
2018-03-26T13:55:26.055Z,6.37
2018-03-26T13:57:55.753Z,6.83
2018-03-26T14:00:28.556Z,6.17
2018-03-26T14:02:58.821Z,5.27
2018-03-26T14:05:30.575Z,4.23
2018-03-26T14:08:00.024Z,4.67
2018-03-26T14:14:51.723Z,4.17
2018-03-26T14:17:35.492Z,3.07
2018-03-26T14:20:05.075Z,3.60
2018-03-26T14:22:41.509Z,4.73
2018-03-26T14:25:11.824Z,4.27
2018-03-26T14:27:41.596Z,3.60
2018-03-26T14:30:12.430Z,3.63
2018-03-26T14:32:43.816Z,3.80
2018-03-26T14:35:45.034Z,2.80
2018-03-26T14:38:15.239Z,2.40
2018-03-26T14:40:48.337Z,2.40
2018-03-26T14:43:19.304Z,3.10
2018-03-26T14:45:51.930Z,1.70
2018-03-26T14:48:21.434Z,1.93
2018-03-26T14:50:54.696Z,2.07
2018-03-26T14:53:24.855Z,2.30
2018-03-26T14:55:56.379Z,2.77
2018-03-26T14:58:26.067Z,2.07
2018-03-26T15:01:00.139Z,2.47
2018-03-26T15:03:29.889Z,1.63
2018-03-26T15:06:02.556Z,1.63
2018-03-26T15:08:32.224Z,2.50
2018-03-26T15:11:04.864Z,2.27
2018-03-26T15:13:34.358Z,1.40
2018-03-26T15:16:07.548Z,1.93
2018-03-26T15:21:13.852Z,2.33
2018-03-26T15:23:43.298Z,2.13
2018-03-26T15:26:13.925Z,2.20
2018-03-26T15:28:43.944Z,2.50
2018-03-26T15:31:16.388Z,2.30
2018-03-26T15:33:45.824Z,2.47
2018-03-26T15:36:17.674Z,3.30
2018-03-26T15:38:47.315Z,2.83
2018-03-26T15:41:19.566Z,3.07
2018-03-26T15:43:49.522Z,2.80
2018-03-26T15:46:22.956Z,2.83
2018-03-26T15:48:52.503Z,2.93
2018-03-26T15:51:24.155Z,3.60
2018-03-26T15:53:54.401Z,3.70
2018-03-26T15:56:27.221Z,3.80
2018-03-26T15:58:56.743Z,4.13
2018-03-26T16:01:30.460Z,3.37
2018-03-26T16:04:00.738Z,3.90
2018-03-26T16:06:30.313Z,3.50
2018-03-26T16:09:01.236Z,3.70
2018-03-26T16:11:33.751Z,3.10
2018-03-26T16:14:04.312Z,2.90
2018-03-26T16:16:37.350Z,3.13
2018-03-26T16:19:06.798Z,3.77
2018-03-26T16:21:37.787Z,3.90
2018-03-26T16:24:08.334Z,4.20
2018-03-26T16:26:41.355Z,3.70
2018-03-26T16:29:11.122Z,3.90
2018-03-26T16:31:43.856Z,3.60
2018-03-26T16:34:14.195Z,4.27
2018-03-26T16:36:47.545Z,4.00
2018-03-26T16:39:17.062Z,4.07
2018-03-26T16:41:50.338Z,5.07
2018-03-26T16:44:20.140Z,7.27
2018-03-26T16:46:52.222Z,6.93
2018-03-26T16:49:21.717Z,7.40
2018-03-26T16:51:56.956Z,6.10
2018-03-26T16:54:26.567Z,4.70
2018-03-26T16:56:59.270Z,4.37
2018-03-26T16:59:28.920Z,4.40
2018-03-26T17:02:01.747Z,4.33
2018-03-26T17:04:31.950Z,4.60
2018-03-26T17:07:04.135Z,3.97
2018-03-26T17:09:33.576Z,6.03
2018-03-26T17:12:05.275Z,4.83
2018-03-26T17:14:34.958Z,5.40
2018-03-26T17:17:11.453Z,4.20
2018-03-26T17:19:41.126Z,3.30
2018-03-26T17:22:12.755Z,3.80
2018-03-26T17:24:43.024Z,4.50
2018-03-26T17:27:15.763Z,4.47
2018-03-26T17:29:46.161Z,3.60
2018-03-26T17:32:16.856Z,4.23
2018-03-26T17:34:46.284Z,4.03
2018-03-26T17:37:19.005Z,4.73
2018-03-26T17:39:49.213Z,4.33
2018-03-26T17:42:22.762Z,4.27
2018-03-26T17:44:52.602Z,4.13
2018-03-26T17:47:23.541Z,3.50
2018-03-26T17:49:53.795Z,4.33
2018-03-26T17:52:24.853Z,4.47
2018-03-26T17:54:55.026Z,4.13
2018-03-26T17:57:28.341Z,4.60
2018-03-26T17:59:59.051Z,5.77
2018-03-26T18:02:30.053Z,4.93
2018-03-26T18:04:59.656Z,5.40
2018-03-26T18:07:31.649Z,5.57
2018-03-26T18:10:01.128Z,5.70
2018-03-26T18:12:37.692Z,5.90
2018-03-26T18:15:07.524Z,6.17
2018-03-26T18:17:36.993Z,5.83
2018-03-26T18:20:06.360Z,5.37
2018-03-26T18:22:39.815Z,6.57
2018-03-26T18:25:09.255Z,6.60
2018-03-26T18:27:46.139Z,7.17
2018-03-26T18:30:15.809Z,7.00
2018-03-26T18:32:45.256Z,7.17
2018-03-26T18:35:15.384Z,6.07
2018-03-26T18:37:47.093Z,6.93
2018-03-26T18:40:16.527Z,7.60
2018-03-26T18:42:53.382Z,6.30
2018-03-26T18:45:22.822Z,6.07
2018-03-26T18:47:53.794Z,5.70
2018-03-26T18:50:23.198Z,6.30
2018-03-26T18:52:56.328Z,6.70
2018-03-26T18:55:26.048Z,6.80
2018-03-26T18:57:59.739Z,6.60
2018-03-26T19:00:29.228Z,6.97
2018-03-26T19:03:01.667Z,7.17
2018-03-26T19:05:31.164Z,6.63
2018-03-26T19:08:08.203Z,6.37
2018-03-26T19:10:37.807Z,5.83
2018-03-26T19:13:08.628Z,6.47
2018-03-26T19:15:37.968Z,6.70
2018-03-26T19:18:15.529Z,7.63
2018-03-26T19:20:44.892Z,6.70
2018-03-26T19:23:15.667Z,9.67
2018-03-26T19:25:45.445Z,7.70
2018-03-26T19:28:17.200Z,8.47
2018-03-26T19:30:46.706Z,8.03
2018-03-26T19:33:20.274Z,6.57
2018-03-26T19:35:50.029Z,7.27
2018-03-26T19:38:23.522Z,5.93
2018-03-26T19:40:54.308Z,6.17
2018-03-26T19:43:23.748Z,5.73
2018-03-26T19:45:53.342Z,5.43
2018-03-26T19:48:26.486Z,4.87
2018-03-26T19:50:55.899Z,5.30
2018-03-26T19:53:28.723Z,5.53
2018-03-26T19:55:58.343Z,5.13
2018-03-26T19:58:29.460Z,5.13
2018-03-26T20:00:58.848Z,5.83
2018-03-26T20:03:33.375Z,7.47
2018-03-26T20:06:02.814Z,7.03
2018-03-26T20:08:35.802Z,6.63
2018-03-26T20:11:05.968Z,8.33
2018-03-26T20:13:37.037Z,6.63
2018-03-26T20:16:06.628Z,6.10
2018-03-26T20:18:39.935Z,5.73
2018-03-26T20:21:09.320Z,6.17
2018-03-26T20:23:41.125Z,6.87
2018-03-26T20:26:10.710Z,7.03
2018-03-26T20:28:48.280Z,6.20
2018-03-26T20:31:17.676Z,6.63
2018-03-26T20:33:47.783Z,6.90
2018-03-26T20:36:18.005Z,9.63
2018-03-26T20:38:50.190Z,9.35
2018-03-26T20:41:19.716Z,7.43
2018-03-26T20:43:53.007Z,7.47
2018-03-26T20:46:22.492Z,7.93
2018-03-26T20:48:59.245Z,7.80
2018-03-26T20:51:29.370Z,7.70
2018-03-26T20:53:59.605Z,7.40
2018-03-26T20:56:29.644Z,8.00
2018-03-26T20:59:02.577Z,7.80
2018-03-26T21:01:32.337Z,7.20
2018-03-26T21:04:04.932Z,7.30
2018-03-26T21:06:34.560Z,8.07
2018-03-26T21:09:07.227Z,7.53
2018-03-26T21:11:37.108Z,7.47
2018-03-26T21:14:10.125Z,7.23
2018-03-26T21:16:39.519Z,7.73
2018-03-26T21:19:16.779Z,6.53
2018-03-26T21:21:46.211Z,6.73
2018-03-26T21:24:15.754Z,6.97
2018-03-26T21:26:46.272Z,7.80
2018-03-26T21:29:19.446Z,7.07
2018-03-26T21:31:48.923Z,7.50
2018-03-26T21:34:19.805Z,6.60
2018-03-26T21:36:50.091Z,7.43
2018-03-26T21:39:22.564Z,7.03
2018-03-26T21:41:53.231Z,7.40
2018-03-26T21:44:24.364Z,6.90
2018-03-26T21:46:54.243Z,6.73
2018-03-26T21:49:26.798Z,7.10
2018-03-26T21:51:57.209Z,6.93
2018-03-26T21:54:29.531Z,7.70
2018-03-26T21:56:59.154Z,7.77
2018-03-26T21:59:32.582Z,7.73
2018-03-26T22:02:03.080Z,6.70
2018-03-26T22:04:34.585Z,9.17
2018-03-26T22:07:04.349Z,7.67
2018-03-26T22:09:37.487Z,7.77
2018-03-26T22:12:07.615Z,8.40
2018-03-26T22:14:39.416Z,7.30
2018-03-26T22:17:09.101Z,7.37
2018-03-26T22:19:41.618Z,8.50
2018-03-26T22:22:12.184Z,7.83
2018-03-26T22:24:43.879Z,8.37
2018-03-26T22:27:13.312Z,8.23
2018-03-26T22:29:47.688Z,9.07
2018-03-26T22:32:17.443Z,8.70
2018-03-26T22:34:51.039Z,8.07
2018-03-26T22:37:20.600Z,8.93
2018-03-26T22:39:53.050Z,8.03
2018-03-26T22:42:22.623Z,9.03
2018-03-26T22:45:00.066Z,8.93
2018-03-26T22:47:30.748Z,8.93
2018-03-26T22:50:00.381Z,8.77
2018-03-26T22:52:39.310Z,9.00
2018-03-26T22:55:15.895Z,9.67
2018-03-26T22:57:45.555Z,8.17
2018-03-26T23:00:15.224Z,9.37
2018-03-26T23:02:45.167Z,8.70
2018-03-26T23:05:15.258Z,9.43
2018-03-26T23:07:46.572Z,9.77
2018-03-26T23:10:17.557Z,10.60
2018-03-26T23:12:47.829Z,8.73
2018-03-26T23:15:26.842Z,9.43
2018-03-26T23:17:56.658Z,9.23
2018-03-26T23:20:34.373Z,11.20
2018-03-26T23:23:05.970Z,10.27
2018-03-26T23:25:46.040Z,10.37
2018-03-26T23:28:19.019Z,9.97
2018-03-26T23:30:49.360Z,11.03
2018-03-26T23:33:24.744Z,10.53
2018-03-26T23:35:59.687Z,9.93
2018-03-26T23:38:40.522Z,9.57
2018-03-26T23:41:10.081Z,11.07
2018-03-26T23:43:39.718Z,11.07
2018-03-26T23:46:09.690Z,10.07
2018-03-26T23:48:39.122Z,11.07
2018-03-26T23:51:08.715Z,10.27
2018-03-26T23:53:39.292Z,11.40
2018-03-26T23:56:08.752Z,10.13
2018-03-26T23:58:39.081Z,11.23
